sensor_id;sensor_type;location;lat;lon;timestamp;pressure;altitude;pressure_sealevel;temperature
74321;BMP280;62738;45.772;4.804;2022-08-27T00:02:04;-23747.28;;;21.97
74321;BMP280;62738;45.772;4.804;2022-08-27T00:04:51;-23746.31;;;21.95
74321;BMP280;62738;45.772;4.804;2022-08-27T00:07:39;-23746.31;;;21.95
74321;BMP280;62738;45.772;4.804;2022-08-27T00:10:26;-23739.53;;;21.81
74321;BMP280;62738;45.772;4.804;2022-08-27T00:13:13;-23740.00;;;21.82
74321;BMP280;62738;45.772;4.804;2022-08-27T00:16:05;-23739.03;;;21.80
74321;BMP280;62738;45.772;4.804;2022-08-27T00:18:54;-23744.63;;;21.91
74321;BMP280;62738;45.772;4.804;2022-08-27T00:21:42;-23747.28;;;21.97
74321;BMP280;62738;45.772;4.804;2022-08-27T00:24:29;-23744.38;;;21.91
74321;BMP280;62738;45.772;4.804;2022-08-27T00:27:16;-23745.34;;;21.93
74321;BMP280;62738;45.772;4.804;2022-08-27T00:30:06;-23744.38;;;21.91
74321;BMP280;62738;45.772;4.804;2022-08-27T00:32:54;-23743.88;;;21.90
74321;BMP280;62738;45.772;4.804;2022-08-27T00:35:42;-23737.56;;;21.77
74321;BMP280;62738;45.772;4.804;2022-08-27T00:38:29;-23738.31;;;21.78
74321;BMP280;62738;45.772;4.804;2022-08-27T00:41:18;-23743.66;;;21.89
74321;BMP280;62738;45.772;4.804;2022-08-27T00:44:06;-23737.81;;;21.77
74321;BMP280;62738;45.772;4.804;2022-08-27T00:46:56;-23740.50;;;21.83
74321;BMP280;62738;45.772;4.804;2022-08-27T00:49:56;-23737.56;;;21.77
74321;BMP280;62738;45.772;4.804;2022-08-27T00:52:45;-23735.41;;;21.72
74321;BMP280;62738;45.772;4.804;2022-08-27T00:55:39;-23738.06;;;21.78
74321;BMP280;62738;45.772;4.804;2022-08-27T00:58:31;-23736.13;;;21.74
74321;BMP280;62738;45.772;4.804;2022-08-27T01:01:24;-23731.50;;;21.64
74321;BMP280;62738;45.772;4.804;2022-08-27T01:04:11;-23730.31;;;21.62
74321;BMP280;62738;45.772;4.804;2022-08-27T01:07:00;-23726.41;;;21.54
74321;BMP280;62738;45.772;4.804;2022-08-27T01:09:48;-23728.34;;;21.58
74321;BMP280;62738;45.772;4.804;2022-08-27T01:12:38;-23724.47;;;21.50
74321;BMP280;62738;45.772;4.804;2022-08-27T01:15:26;-23724.00;;;21.49
74321;BMP280;62738;45.772;4.804;2022-08-27T01:18:14;-23720.59;;;21.42
74321;BMP280;62738;45.772;4.804;2022-08-27T01:21:49;-23721.56;;;21.44
74321;BMP280;62738;45.772;4.804;2022-08-27T01:24:41;-23716.97;;;21.34
74321;BMP280;62738;45.772;4.804;2022-08-27T01:27:31;-23722.03;;;21.45
74321;BMP280;62738;45.772;4.804;2022-08-27T01:30:19;-23727.41;;;21.56
74321;BMP280;62738;45.772;4.804;2022-08-27T01:33:09;-23732.97;;;21.67
74321;BMP280;62738;45.772;4.804;2022-08-27T01:35:57;-23737.81;;;21.77
74321;BMP280;62738;45.772;4.804;2022-08-27T01:38:44;-23740.00;;;21.82
74321;BMP280;62738;45.772;4.804;2022-08-27T01:41:34;-23739.53;;;21.81
74321;BMP280;62738;45.772;4.804;2022-08-27T01:44:23;-23741.47;;;21.85
74321;BMP280;62738;45.772;4.804;2022-08-27T01:47:10;-23739.28;;;21.80
74321;BMP280;62738;45.772;4.804;2022-08-27T01:49:58;-23730.78;;;21.63
74321;BMP280;62738;45.772;4.804;2022-08-27T01:52:46;-23726.41;;;21.54
74321;BMP280;62738;45.772;4.804;2022-08-27T01:55:33;-23724.22;;;21.49
74321;BMP280;62738;45.772;4.804;2022-08-27T01:58:24;-23719.38;;;21.39
74321;BMP280;62738;45.772;4.804;2022-08-27T02:01:12;-23724.97;;;21.51
74321;BMP280;62738;45.772;4.804;2022-08-27T02:04:02;-23723.75;;;21.48
74321;BMP280;62738;45.772;4.804;2022-08-27T02:06:49;-23720.13;;;21.41
74321;BMP280;62738;45.772;4.804;2022-08-27T02:09:37;-23724.97;;;21.51
74321;BMP280;62738;45.772;4.804;2022-08-27T02:12:24;-23721.56;;;21.44
74321;BMP280;62738;45.772;4.804;2022-08-27T02:15:11;-23712.81;;;21.26
74321;BMP280;62738;45.772;4.804;2022-08-27T02:17:59;-23716.47;;;21.33
74321;BMP280;62738;45.772;4.804;2022-08-27T02:20:47;-23717.19;;;21.35
74321;BMP280;62738;45.772;4.804;2022-08-27T02:23:34;-23718.41;;;21.37
74321;BMP280;62738;45.772;4.804;2022-08-27T02:26:22;-23715.75;;;21.32
74321;BMP280;62738;45.772;4.804;2022-08-27T02:29:09;-23717.69;;;21.36
74321;BMP280;62738;45.772;4.804;2022-08-27T02:31:56;-23718.66;;;21.38
74321;BMP280;62738;45.772;4.804;2022-08-27T02:34:43;-23721.09;;;21.43
74321;BMP280;62738;45.772;4.804;2022-08-27T02:37:31;-23727.41;;;21.56
74321;BMP280;62738;45.772;4.804;2022-08-27T02:40:20;-23725.94;;;21.53
74321;BMP280;62738;45.772;4.804;2022-08-27T02:43:08;-23728.59;;;21.58
74321;BMP280;62738;45.772;4.804;2022-08-27T02:46:02;-23727.88;;;21.57
74321;BMP280;62738;45.772;4.804;2022-08-27T02:48:49;-23722.53;;;21.46
74321;BMP280;62738;45.772;4.804;2022-08-27T02:51:36;-23716.72;;;21.34
74321;BMP280;62738;45.772;4.804;2022-08-27T02:54:25;-23720.84;;;21.42
74321;BMP280;62738;45.772;4.804;2022-08-27T02:57:12;-23714.28;;;21.29
74321;BMP280;62738;45.772;4.804;2022-08-27T02:59:59;-23718.66;;;21.38
74321;BMP280;62738;45.772;4.804;2022-08-27T03:02:47;-23714.28;;;21.29
74321;BMP280;62738;45.772;4.804;2022-08-27T03:05:35;-23715.75;;;21.32
74321;BMP280;62738;45.772;4.804;2022-08-27T03:08:23;-23720.13;;;21.41
74321;BMP280;62738;45.772;4.804;2022-08-27T03:11:10;-23726.41;;;21.54
74321;BMP280;62738;45.772;4.804;2022-08-27T03:13:58;-23724.72;;;21.50
74321;BMP280;62738;45.772;4.804;2022-08-27T03:16:45;-23724.47;;;21.50
74321;BMP280;62738;45.772;4.804;2022-08-27T03:19:32;-23709.44;;;21.19
74321;BMP280;62738;45.772;4.804;2022-08-27T03:22:19;-23716.72;;;21.34
74321;BMP280;62738;45.772;4.804;2022-08-27T03:25:07;-23713.81;;;21.28
74321;BMP280;62738;45.772;4.804;2022-08-27T03:27:55;-23712.81;;;21.26
74321;BMP280;62738;45.772;4.804;2022-08-27T03:30:42;-23712.81;;;21.26
74321;BMP280;62738;45.772;4.804;2022-08-27T03:33:37;-23705.56;;;21.11
74321;BMP280;62738;45.772;4.804;2022-08-27T03:36:25;-23704.34;;;21.09
74321;BMP280;62738;45.772;4.804;2022-08-27T03:39:13;-23706.53;;;21.13
74321;BMP280;62738;45.772;4.804;2022-08-27T03:42:00;-23708.72;;;21.18
74321;BMP280;62738;45.772;4.804;2022-08-27T03:44:48;-23707.00;;;21.14
74321;BMP280;62738;45.772;4.804;2022-08-27T03:47:36;-23715.25;;;21.31
74321;BMP280;62738;45.772;4.804;2022-08-27T03:50:23;-23711.38;;;21.23
74321;BMP280;62738;45.772;4.804;2022-08-27T03:53:10;-23712.09;;;21.25
74321;BMP280;62738;45.772;4.804;2022-08-27T03:55:57;-23709.44;;;21.19
74321;BMP280;62738;45.772;4.804;2022-08-27T03:58:44;-23709.44;;;21.19
74321;BMP280;62738;45.772;4.804;2022-08-27T04:01:32;-23710.41;;;21.21
74321;BMP280;62738;45.772;4.804;2022-08-27T04:04:19;-23706.03;;;21.12
74321;BMP280;62738;45.772;4.804;2022-08-27T04:07:06;-23698.75;;;20.97
74321;BMP280;62738;45.772;4.804;2022-08-27T04:09:54;-23700.94;;;21.02
74321;BMP280;62738;45.772;4.804;2022-08-27T04:12:43;-23697.06;;;20.94
74321;BMP280;62738;45.772;4.804;2022-08-27T04:15:30;-23695.84;;;20.91
74321;BMP280;62738;45.772;4.804;2022-08-27T04:18:18;-23695.84;;;20.91
74321;BMP280;62738;45.772;4.804;2022-08-27T04:21:07;-23693.41;;;20.86
74321;BMP280;62738;45.772;4.804;2022-08-27T04:23:55;-23692.44;;;20.84
74321;BMP280;62738;45.772;4.804;2022-08-27T04:26:42;-23688.56;;;20.76
74321;BMP280;62738;45.772;4.804;2022-08-27T04:29:31;-23686.63;;;20.72
74321;BMP280;62738;45.772;4.804;2022-08-27T04:32:19;-23681.53;;;20.62
74321;BMP280;62738;45.772;4.804;2022-08-27T04:35:06;-23682.50;;;20.64
74321;BMP280;62738;45.772;4.804;2022-08-27T04:37:53;-23680.56;;;20.60
74321;BMP280;62738;45.772;4.804;2022-08-27T04:40:40;-23685.19;;;20.69
74321;BMP280;62738;45.772;4.804;2022-08-27T04:43:52;-23691.47;;;20.82
74321;BMP280;62738;45.772;4.804;2022-08-27T04:46:39;-23681.28;;;20.61
74321;BMP280;62738;45.772;4.804;2022-08-27T04:49:34;-23696.34;;;20.92
74321;BMP280;62738;45.772;4.804;2022-08-27T04:52:22;-23689.31;;;20.78
74321;BMP280;62738;45.772;4.804;2022-08-27T04:55:09;-23691.72;;;20.83
74321;BMP280;62738;45.772;4.804;2022-08-27T04:57:56;-23689.78;;;20.79
74321;BMP280;62738;45.772;4.804;2022-08-27T05:00:49;-23695.84;;;20.91
74321;BMP280;62738;45.772;4.804;2022-08-27T05:03:37;-23696.34;;;20.92
74321;BMP280;62738;45.772;4.804;2022-08-27T05:06:24;-23700.94;;;21.02
74321;BMP280;62738;45.772;4.804;2022-08-27T05:09:15;-23697.28;;;20.94
74321;BMP280;62738;45.772;4.804;2022-08-27T05:12:04;-23687.59;;;20.74
74321;BMP280;62738;45.772;4.804;2022-08-27T05:14:53;-23682.25;;;20.63
74321;BMP280;62738;45.772;4.804;2022-08-27T05:17:40;-23680.06;;;20.59
74321;BMP280;62738;45.772;4.804;2022-08-27T05:20:29;-23684.69;;;20.68
74321;BMP280;62738;45.772;4.804;2022-08-27T05:23:17;-23687.13;;;20.73
74321;BMP280;62738;45.772;4.804;2022-08-27T05:26:06;-23693.19;;;20.86
74321;BMP280;62738;45.772;4.804;2022-08-27T05:28:53;-23694.38;;;20.88
74321;BMP280;62738;45.772;4.804;2022-08-27T05:31:41;-23694.38;;;20.88
74321;BMP280;62738;45.772;4.804;2022-08-27T05:34:29;-23691.72;;;20.83
74321;BMP280;62738;45.772;4.804;2022-08-27T05:37:17;-23696.09;;;20.92
74321;BMP280;62738;45.772;4.804;2022-08-27T05:40:05;-23695.59;;;20.91
74321;BMP280;62738;45.772;4.804;2022-08-27T05:42:52;-23698.75;;;20.97
74321;BMP280;62738;45.772;4.804;2022-08-27T05:45:41;-23692.22;;;20.84
74321;BMP280;62738;45.772;4.804;2022-08-27T05:48:28;-23681.28;;;20.61
74321;BMP280;62738;45.772;4.804;2022-08-27T05:51:18;-23680.31;;;20.59
74321;BMP280;62738;45.772;4.804;2022-08-27T05:54:11;-23684.69;;;20.68
74321;BMP280;62738;45.772;4.804;2022-08-27T05:57:00;-23680.81;;;20.60
74321;BMP280;62738;45.772;4.804;2022-08-27T05:59:47;-23663.09;;;20.24
74321;BMP280;62738;45.772;4.804;2022-08-27T06:02:57;-23670.13;;;20.39
74321;BMP280;62738;45.772;4.804;2022-08-27T06:05:44;-23675.47;;;20.49
74321;BMP280;62738;45.772;4.804;2022-08-27T06:08:31;-23676.91;;;20.52
74321;BMP280;62738;45.772;4.804;2022-08-27T06:11:18;-23685.66;;;20.70
74321;BMP280;62738;45.772;4.804;2022-08-27T06:14:06;-23684.19;;;20.67
74321;BMP280;62738;45.772;4.804;2022-08-27T06:16:55;-23684.19;;;20.67
74321;BMP280;62738;45.772;4.804;2022-08-27T06:19:42;-23684.94;;;20.69
74321;BMP280;62738;45.772;4.804;2022-08-27T06:22:29;-23683.00;;;20.65
74321;BMP280;62738;45.772;4.804;2022-08-27T06:25:16;-23695.84;;;20.91
74321;BMP280;62738;45.772;4.804;2022-08-27T06:28:03;-23706.03;;;21.12
74321;BMP280;62738;45.772;4.804;2022-08-27T06:30:53;-23707.50;;;21.15
74321;BMP280;62738;45.772;4.804;2022-08-27T06:33:41;-23708.94;;;21.18
74321;BMP280;62738;45.772;4.804;2022-08-27T06:36:29;-23696.34;;;20.92
74321;BMP280;62738;45.772;4.804;2022-08-27T06:39:16;-23701.66;;;21.03
74321;BMP280;62738;45.772;4.804;2022-08-27T06:42:04;-23705.06;;;21.10
74321;BMP280;62738;45.772;4.804;2022-08-27T06:44:52;-23702.16;;;21.04
74321;BMP280;62738;45.772;4.804;2022-08-27T06:47:40;-23706.75;;;21.14
74321;BMP280;62738;45.772;4.804;2022-08-27T06:50:27;-23714.78;;;21.30
74321;BMP280;62738;45.772;4.804;2022-08-27T06:53:14;-23712.34;;;21.25
74321;BMP280;62738;45.772;4.804;2022-08-27T06:56:01;-23715.75;;;21.32
74321;BMP280;62738;45.772;4.804;2022-08-27T06:58:53;-23718.91;;;21.38
74321;BMP280;62738;45.772;4.804;2022-08-27T07:01:44;-23723.03;;;21.47
74321;BMP280;62738;45.772;4.804;2022-08-27T07:04:31;-23724.72;;;21.50
74321;BMP280;62738;45.772;4.804;2022-08-27T07:07:19;-23734.19;;;21.70
74321;BMP280;62738;45.772;4.804;2022-08-27T07:10:22;-23741.72;;;21.85
74321;BMP280;62738;45.772;4.804;2022-08-27T07:13:10;-23736.38;;;21.74
74321;BMP280;62738;45.772;4.804;2022-08-27T07:15:57;-23740.50;;;21.83
74321;BMP280;62738;45.772;4.804;2022-08-27T07:18:45;-23729.81;;;21.61
74321;BMP280;62738;45.772;4.804;2022-08-27T07:21:34;-23734.19;;;21.70
74321;BMP280;62738;45.772;4.804;2022-08-27T07:24:22;-23740.97;;;21.84
74321;BMP280;62738;45.772;4.804;2022-08-27T07:27:10;-23747.78;;;21.98
74321;BMP280;62738;45.772;4.804;2022-08-27T07:29:58;-23747.28;;;21.97
74321;BMP280;62738;45.772;4.804;2022-08-27T07:32:47;-23744.63;;;21.91
74321;BMP280;62738;45.772;4.804;2022-08-27T07:35:34;-23748.03;;;21.98
74321;BMP280;62738;45.772;4.804;2022-08-27T07:38:21;-23738.56;;;21.79
74321;BMP280;62738;45.772;4.804;2022-08-27T07:41:10;-23735.66;;;21.73
74321;BMP280;62738;45.772;4.804;2022-08-27T07:43:59;-23739.28;;;21.80
74321;BMP280;62738;45.772;4.804;2022-08-27T07:47:05;-23745.34;;;21.93
74321;BMP280;62738;45.772;4.804;2022-08-27T07:49:52;-23751.66;;;22.06
74321;BMP280;62738;45.772;4.804;2022-08-27T07:52:39;-23762.34;;;22.27
74321;BMP280;62738;45.772;4.804;2022-08-27T07:55:29;-23754.81;;;22.12
74321;BMP280;62738;45.772;4.804;2022-08-27T07:58:16;-23752.63;;;22.08
74321;BMP280;62738;45.772;4.804;2022-08-27T08:01:04;-23752.13;;;22.07
74321;BMP280;62738;45.772;4.804;2022-08-27T08:03:52;-23749.97;;;22.02
74321;BMP280;62738;45.772;4.804;2022-08-27T08:06:39;-23757.72;;;22.18
74321;BMP280;62738;45.772;4.804;2022-08-27T08:09:26;-23757.47;;;22.17
74321;BMP280;62738;45.772;4.804;2022-08-27T08:12:13;-23765.25;;;22.33
74321;BMP280;62738;45.772;4.804;2022-08-27T08:15:01;-23754.09;;;22.11
74321;BMP280;62738;45.772;4.804;2022-08-27T08:17:48;-23764.75;;;22.32
74321;BMP280;62738;45.772;4.804;2022-08-27T08:20:36;-23759.41;;;22.21
74321;BMP280;62738;45.772;4.804;2022-08-27T08:23:43;-23776.91;;;22.57
74321;BMP280;62738;45.772;4.804;2022-08-27T08:26:30;-23777.16;;;22.58
74321;BMP280;62738;45.772;4.804;2022-08-27T08:29:17;-23774.97;;;22.53
74321;BMP280;62738;45.772;4.804;2022-08-27T08:32:06;-23771.06;;;22.45
74321;BMP280;62738;45.772;4.804;2022-08-27T08:34:53;-23780.78;;;22.65
74321;BMP280;62738;45.772;4.804;2022-08-27T08:37:44;-23781.50;;;22.67
74321;BMP280;62738;45.772;4.804;2022-08-27T08:40:35;-23791.69;;;22.88
74321;BMP280;62738;45.772;4.804;2022-08-27T08:43:33;-23795.09;;;22.95
74321;BMP280;62738;45.772;4.804;2022-08-27T08:46:36;-23791.47;;;22.87
74321;BMP280;62738;45.772;4.804;2022-08-27T08:49:48;-23799.72;;;23.04
74321;BMP280;62738;45.772;4.804;2022-08-27T08:52:53;-23802.63;;;23.10
74321;BMP280;62738;45.772;4.804;2022-08-27T08:55:54;-23798.50;;;23.01
74321;BMP280;62738;45.772;4.804;2022-08-27T08:58:50;-23805.06;;;23.15
74321;BMP280;62738;45.772;4.804;2022-08-27T09:01:38;-23812.34;;;23.30
74321;BMP280;62738;45.772;4.804;2022-08-27T09:04:26;-23815.25;;;23.36
74321;BMP280;62738;45.772;4.804;2022-08-27T09:07:35;-23820.84;;;23.47
74321;BMP280;62738;45.772;4.804;2022-08-27T09:10:31;-23814.03;;;23.33
74321;BMP280;62738;45.772;4.804;2022-08-27T09:13:33;-23811.59;;;23.28
74321;BMP280;62738;45.772;4.804;2022-08-27T09:16:20;-23810.88;;;23.27
74321;BMP280;62738;45.772;4.804;2022-08-27T09:19:09;-23808.94;;;23.23
74321;BMP280;62738;45.772;4.804;2022-08-27T09:22:04;-23812.59;;;23.30
74321;BMP280;62738;45.772;4.804;2022-08-27T09:27:42;-23821.81;;;23.49
74321;BMP280;62738;45.772;4.804;2022-08-27T09:30:39;-23822.03;;;23.50
74321;BMP280;62738;45.772;4.804;2022-08-27T09:33:26;-23823.50;;;23.53
74321;BMP280;62738;45.772;4.804;2022-08-27T09:36:30;-23831.75;;;23.70
74321;BMP280;62738;45.772;4.804;2022-08-27T09:39:17;-23821.81;;;23.49
74321;BMP280;62738;45.772;4.804;2022-08-27T09:42:05;-23831.75;;;23.70
74321;BMP280;62738;45.772;4.804;2022-08-27T09:44:53;-23842.91;;;23.92
74321;BMP280;62738;45.772;4.804;2022-08-27T09:47:48;-23844.63;;;23.96
74321;BMP280;62738;45.772;4.804;2022-08-27T09:50:44;-23839.03;;;23.84
74321;BMP280;62738;45.772;4.804;2022-08-27T09:53:38;-23843.88;;;23.94
74321;BMP280;62738;45.772;4.804;2022-08-27T09:56:29;-23842.44;;;23.91
74321;BMP280;62738;45.772;4.804;2022-08-27T09:59:23;-23843.41;;;23.93
74321;BMP280;62738;45.772;4.804;2022-08-27T10:02:19;-23845.09;;;23.97
74321;BMP280;62738;45.772;4.804;2022-08-27T10:05:16;-23850.69;;;24.08
74321;BMP280;62738;45.772;4.804;2022-08-27T10:08:14;-23847.03;;;24.01
74321;BMP280;62738;45.772;4.804;2022-08-27T10:11:29;-23847.28;;;24.01
74321;BMP280;62738;45.772;4.804;2022-08-27T10:14:25;-23850.69;;;24.08
74321;BMP280;62738;45.772;4.804;2022-08-27T10:17:40;-23841.47;;;23.89
74321;BMP280;62738;45.772;4.804;2022-08-27T10:20:57;-23843.66;;;23.94
74321;BMP280;62738;45.772;4.804;2022-08-27T10:24:18;-23851.91;;;24.11
74321;BMP280;62738;45.772;4.804;2022-08-27T10:30:21;-23862.09;;;24.32
74321;BMP280;62738;45.772;4.804;2022-08-27T10:52:50;-23867.19;;;24.42
74321;BMP280;62738;45.772;4.804;2022-08-27T10:55:44;-23870.59;;;24.49
74321;BMP280;62738;45.772;4.804;2022-08-27T11:05:33;-23872.28;;;24.52
74321;BMP280;62738;45.772;4.804;2022-08-27T11:08:40;-23871.09;;;24.50
74321;BMP280;62738;45.772;4.804;2022-08-27T11:11:45;-23888.56;;;24.86
74321;BMP280;62738;45.772;4.804;2022-08-27T11:14:57;-23892.69;;;24.94
74321;BMP280;62738;45.772;4.804;2022-08-27T11:17:58;-23891.97;;;24.93
74321;BMP280;62738;45.772;4.804;2022-08-27T11:20:52;-23892.69;;;24.94
74321;BMP280;62738;45.772;4.804;2022-08-27T11:23:43;-23902.88;;;25.15
74321;BMP280;62738;45.772;4.804;2022-08-27T11:26:32;-23896.81;;;25.03
74321;BMP280;62738;45.772;4.804;2022-08-27T11:29:36;-23896.34;;;25.02
74321;BMP280;62738;45.772;4.804;2022-08-27T11:32:32;-23891.22;;;24.91
74321;BMP280;62738;45.772;4.804;2022-08-27T11:35:30;-23880.78;;;24.70
74321;BMP280;62738;45.772;4.804;2022-08-27T11:38:32;-23874.97;;;24.58
74321;BMP280;62738;45.772;4.804;2022-08-27T11:41:51;-23882.72;;;24.74
74321;BMP280;62738;45.772;4.804;2022-08-27T11:44:43;-23886.63;;;24.82
74321;BMP280;62738;45.772;4.804;2022-08-27T11:47:32;-23900.22;;;25.10
74321;BMP280;62738;45.772;4.804;2022-08-27T11:50:26;-23895.34;;;25.00
74321;BMP280;62738;45.772;4.804;2022-08-27T11:53:23;-23899.75;;;25.09
74321;BMP280;62738;45.772;4.804;2022-08-27T11:56:37;-23882.25;;;24.73
74321;BMP280;62738;45.772;4.804;2022-08-27T12:02:24;-23889.78;;;24.88
74321;BMP280;62738;45.772;4.804;2022-08-27T12:05:31;-23898.03;;;25.05
74321;BMP280;62738;45.772;4.804;2022-08-27T12:11:34;-23888.81;;;24.86
74321;BMP280;62738;45.772;4.804;2022-08-27T12:26:57;-23913.31;;;25.36
74321;BMP280;62738;45.772;4.804;2022-08-27T12:35:30;-23928.38;;;25.67
74321;BMP280;62738;45.772;4.804;2022-08-27T12:41:30;-23915.75;;;25.41
74321;BMP280;62738;45.772;4.804;2022-08-27T12:44:32;-23908.97;;;25.28
74321;BMP280;62738;45.772;4.804;2022-08-27T12:47:19;-23918.44;;;25.47
74321;BMP280;62738;45.772;4.804;2022-08-27T12:50:06;-23922.56;;;25.55
74321;BMP280;62738;45.772;4.804;2022-08-27T12:53:04;-23910.41;;;25.30
74321;BMP280;62738;45.772;4.804;2022-08-27T12:56:48;-23909.94;;;25.29
74321;BMP280;62738;45.772;4.804;2022-08-27T12:59:26;-23912.84;;;25.35
74321;BMP280;62738;45.772;4.804;2022-08-27T13:02:25;-23916.00;;;25.42
74321;BMP280;62738;45.772;4.804;2022-08-27T13:05:18;-23925.94;;;25.62
74321;BMP280;62738;45.772;4.804;2022-08-27T13:08:31;-23931.06;;;25.73
74321;BMP280;62738;45.772;4.804;2022-08-27T13:11:21;-23930.56;;;25.72
74321;BMP280;62738;45.772;4.804;2022-08-27T13:14:14;-23924.97;;;25.60
74321;BMP280;62738;45.772;4.804;2022-08-27T13:17:09;-23913.81;;;25.37
74321;BMP280;62738;45.772;4.804;2022-08-27T13:19:58;-23924.75;;;25.60
74321;BMP280;62738;45.772;4.804;2022-08-27T13:22:47;-23922.81;;;25.56
74321;BMP280;62738;45.772;4.804;2022-08-27T13:25:35;-23924.50;;;25.59
74321;BMP280;62738;45.772;4.804;2022-08-27T13:28:25;-23936.16;;;25.83
74321;BMP280;62738;45.772;4.804;2022-08-27T13:31:14;-23939.06;;;25.89
74321;BMP280;62738;45.772;4.804;2022-08-27T13:34:04;-23933.25;;;25.77
74321;BMP280;62738;45.772;4.804;2022-08-27T13:37:04;-23910.41;;;25.30
74321;BMP280;62738;45.772;4.804;2022-08-27T13:39:53;-23922.56;;;25.55
74321;BMP280;62738;45.772;4.804;2022-08-27T13:42:41;-23926.19;;;25.63
74321;BMP280;62738;45.772;4.804;2022-08-27T13:45:30;-23944.91;;;26.01
74321;BMP280;62738;45.772;4.804;2022-08-27T13:48:18;-23938.59;;;25.88
74321;BMP280;62738;45.772;4.804;2022-08-27T13:51:10;-23948.28;;;26.08
74321;BMP280;62738;45.772;4.804;2022-08-27T13:54:00;-23956.56;;;26.25
74321;BMP280;62738;45.772;4.804;2022-08-27T13:57:08;-23955.56;;;26.23
74321;BMP280;62738;45.772;4.804;2022-08-27T14:00:13;-23955.56;;;26.23
74321;BMP280;62738;45.772;4.804;2022-08-27T14:03:01;-23948.78;;;26.09
74321;BMP280;62738;45.772;4.804;2022-08-27T14:05:48;-23940.53;;;25.92
74321;BMP280;62738;45.772;4.804;2022-08-27T14:08:35;-23947.81;;;26.07
74321;BMP280;62738;45.772;4.804;2022-08-27T14:11:24;-23955.09;;;26.22
74321;BMP280;62738;45.772;4.804;2022-08-27T14:14:14;-23950.97;;;26.13
74321;BMP280;62738;45.772;4.804;2022-08-27T14:17:03;-23958.50;;;26.29
74321;BMP280;62738;45.772;4.804;2022-08-27T14:19:50;-23957.53;;;26.27
74321;BMP280;62738;45.772;4.804;2022-08-27T14:22:38;-23966.25;;;26.45
74321;BMP280;62738;45.772;4.804;2022-08-27T14:25:28;-23972.81;;;26.58
74321;BMP280;62738;45.772;4.804;2022-08-27T14:28:16;-23964.31;;;26.41
74321;BMP280;62738;45.772;4.804;2022-08-27T14:31:03;-23970.41;;;26.53
74321;BMP280;62738;45.772;4.804;2022-08-27T14:33:51;-23967.25;;;26.47
74321;BMP280;62738;45.772;4.804;2022-08-27T14:36:40;-23964.31;;;26.41
74321;BMP280;62738;45.772;4.804;2022-08-27T14:39:28;-23974.53;;;26.62
74321;BMP280;62738;45.772;4.804;2022-08-27T14:42:15;-23975.72;;;26.64
74321;BMP280;62738;45.772;4.804;2022-08-27T14:45:04;-23979.13;;;26.71
74321;BMP280;62738;45.772;4.804;2022-08-27T14:47:51;-23991.03;;;26.95
74321;BMP280;62738;45.772;4.804;2022-08-27T14:50:48;-23974.03;;;26.61
74321;BMP280;62738;45.772;4.804;2022-08-27T14:53:35;-23986.91;;;26.87
74321;BMP280;62738;45.772;4.804;2022-08-27T14:56:24;-23991.03;;;26.95
74321;BMP280;62738;45.772;4.804;2022-08-27T14:59:11;-23993.22;;;27.00
74321;BMP280;62738;45.772;4.804;2022-08-27T15:02:00;-23980.34;;;26.73
74321;BMP280;62738;45.772;4.804;2022-08-27T15:04:49;-23975.00;;;26.63
74321;BMP280;62738;45.772;4.804;2022-08-27T15:07:37;-23995.41;;;27.04
74321;BMP280;62738;45.772;4.804;2022-08-27T15:10:27;-24002.69;;;27.19
74321;BMP280;62738;45.772;4.804;2022-08-27T15:13:14;-24005.13;;;27.24
74321;BMP280;62738;45.772;4.804;2022-08-27T15:16:01;-24002.94;;;27.20
74321;BMP280;62738;45.772;4.804;2022-08-27T15:18:48;-23992.00;;;26.97
74321;BMP280;62738;45.772;4.804;2022-08-27T15:21:48;-24001.47;;;27.17
74321;BMP280;62738;45.772;4.804;2022-08-27T15:24:46;-23999.53;;;27.13
74321;BMP280;62738;45.772;4.804;2022-08-27T15:27:35;-24001.47;;;27.17
74321;BMP280;62738;45.772;4.804;2022-08-27T15:30:27;-24020.19;;;27.55
74321;BMP280;62738;45.772;4.804;2022-08-27T15:33:14;-24018.25;;;27.51
74321;BMP280;62738;45.772;4.804;2022-08-27T15:36:02;-24004.88;;;27.24
74321;BMP280;62738;45.772;4.804;2022-08-27T15:38:50;-23994.91;;;27.03
74321;BMP280;62738;45.772;4.804;2022-08-27T15:41:38;-24001.22;;;27.16
74321;BMP280;62738;45.772;4.804;2022-08-27T15:44:50;-24007.06;;;27.28
74321;BMP280;62738;45.772;4.804;2022-08-27T15:47:38;-24007.53;;;27.29
74321;BMP280;62738;45.772;4.804;2022-08-27T15:50:26;-24009.97;;;27.34
74321;BMP280;62738;45.772;4.804;2022-08-27T15:53:14;-24017.75;;;27.50
74321;BMP280;62738;45.772;4.804;2022-08-27T15:56:03;-24015.31;;;27.45
74321;BMP280;62738;45.772;4.804;2022-08-27T15:58:52;-24020.19;;;27.55
74321;BMP280;62738;45.772;4.804;2022-08-27T16:01:39;-24017.75;;;27.50
74321;BMP280;62738;45.772;4.804;2022-08-27T16:04:27;-24013.88;;;27.42
74321;BMP280;62738;45.772;4.804;2022-08-27T16:07:15;-24012.66;;;27.40
74321;BMP280;62738;45.772;4.804;2022-08-27T16:10:06;-24005.13;;;27.24
74321;BMP280;62738;45.772;4.804;2022-08-27T16:12:54;-24009.25;;;27.33
74321;BMP280;62738;45.772;4.804;2022-08-27T16:15:41;-24019.94;;;27.54
74321;BMP280;62738;45.772;4.804;2022-08-27T16:18:30;-24020.66;;;27.56
74321;BMP280;62738;45.772;4.804;2022-08-27T16:21:18;-24030.88;;;27.77
74321;BMP280;62738;45.772;4.804;2022-08-27T16:24:06;-24023.59;;;27.62
74321;BMP280;62738;45.772;4.804;2022-08-27T16:26:56;-24025.53;;;27.66
74321;BMP280;62738;45.772;4.804;2022-08-27T16:29:43;-24020.41;;;27.55
74321;BMP280;62738;45.772;4.804;2022-08-27T16:32:31;-24034.28;;;27.84
74321;BMP280;62738;45.772;4.804;2022-08-27T16:35:19;-24033.78;;;27.83
74321;BMP280;62738;45.772;4.804;2022-08-27T16:38:06;-24040.59;;;27.97
74321;BMP280;62738;45.772;4.804;2022-08-27T16:40:54;-24044.47;;;28.05
74321;BMP280;62738;45.772;4.804;2022-08-27T16:43:41;-24044.97;;;28.06
74321;BMP280;62738;45.772;4.804;2022-08-27T16:46:29;-24039.38;;;27.94
74321;BMP280;62738;45.772;4.804;2022-08-27T16:49:16;-24041.81;;;27.99
74321;BMP280;62738;45.772;4.804;2022-08-27T16:52:22;-24037.19;;;27.90
74321;BMP280;62738;45.772;4.804;2022-08-27T16:55:09;-24038.16;;;27.92
74321;BMP280;62738;45.772;4.804;2022-08-27T16:57:57;-24028.44;;;27.72
74321;BMP280;62738;45.772;4.804;2022-08-27T17:00:46;-24032.81;;;27.81
74321;BMP280;62738;45.772;4.804;2022-08-27T17:06:54;-24025.28;;;27.65
74321;BMP280;62738;45.772;4.804;2022-08-27T17:09:43;-24017.03;;;27.48
74321;BMP280;62738;45.772;4.804;2022-08-27T17:12:31;-24025.03;;;27.65
74321;BMP280;62738;45.772;4.804;2022-08-27T17:15:18;-24045.69;;;28.07